createdAt,value
2022-07-30T00:01:36.868Z,2.10
2022-07-30T00:06:41.895Z,2.13
2022-07-30T00:11:45.427Z,1.77
2022-07-30T00:16:48.914Z,1.70
2022-07-30T00:21:54.961Z,1.80
2022-07-30T00:26:58.679Z,1.70
2022-07-30T00:32:02.355Z,2.43
2022-07-30T00:37:07.190Z,2.10
2022-07-30T00:42:10.771Z,1.90
2022-07-30T00:47:14.178Z,1.90
2022-07-30T00:52:19.033Z,1.87
2022-07-30T00:57:22.534Z,2.00
2022-07-30T01:02:26.553Z,1.70
2022-07-30T01:07:31.493Z,1.90
2022-07-30T01:12:35.495Z,1.73
2022-07-30T01:17:39.921Z,1.90
2022-07-30T01:22:56.837Z,1.73
2022-07-30T01:28:06.136Z,1.60
2022-07-30T01:33:12.794Z,1.50
2022-07-30T01:38:22.699Z,1.67
2022-07-30T01:43:28.543Z,1.70
2022-07-30T01:48:36.383Z,1.60
2022-07-30T01:53:42.021Z,1.80
2022-07-30T01:58:49.944Z,2.40
2022-07-30T02:03:54.559Z,1.70
2022-07-30T02:09:10.524Z,1.70
2022-07-30T02:14:23.242Z,2.07
2022-07-30T02:19:32.658Z,1.80
2022-07-30T02:24:40.068Z,1.80
2022-07-30T02:29:47.463Z,2.00
2022-07-30T02:34:57.230Z,2.60
2022-07-30T02:40:01.943Z,1.60
2022-07-30T02:45:10.347Z,1.60
2022-07-30T02:50:15.535Z,2.20
2022-07-30T02:55:20.188Z,1.70
2022-07-30T03:00:26.502Z,1.60
2022-07-30T03:05:30.864Z,1.60
2022-07-30T03:10:35.913Z,1.83
2022-07-30T03:15:49.152Z,1.70
2022-07-30T03:20:57.992Z,1.83
2022-07-30T03:26:03.480Z,2.10
2022-07-30T03:31:11.684Z,2.17
2022-07-30T03:36:15.823Z,1.93
2022-07-30T03:41:19.668Z,1.93
2022-07-30T03:46:25.492Z,1.70
2022-07-30T03:51:32.888Z,2.00
2022-07-30T03:56:37.859Z,2.10
2022-07-30T04:01:42.940Z,2.03
2022-07-30T04:06:47.821Z,1.67
2022-07-30T04:11:52.832Z,1.50
2022-07-30T04:17:05.962Z,1.80
2022-07-30T04:22:12.591Z,1.60
2022-07-30T04:27:17.132Z,1.60
2022-07-30T04:32:22.345Z,1.80
2022-07-30T04:37:28.267Z,1.67
2022-07-30T04:42:31.943Z,1.80
2022-07-30T04:47:36.961Z,2.00
2022-07-30T04:52:41.083Z,2.10
2022-07-30T04:57:45.391Z,2.50
2022-07-30T05:02:51.706Z,2.13
2022-07-30T05:07:55.946Z,2.20
2022-07-30T05:12:59.332Z,2.27
2022-07-30T05:18:04.841Z,2.30
2022-07-30T05:23:08.912Z,2.00
2022-07-30T05:28:12.354Z,2.03
2022-07-30T05:33:17.170Z,1.90
2022-07-30T05:38:20.728Z,2.20
2022-07-30T05:43:42.026Z,1.90
2022-07-30T05:48:46.987Z,2.07
2022-07-30T05:53:51.058Z,1.60
2022-07-30T05:58:54.640Z,2.00
2022-07-30T06:03:59.710Z,2.00
2022-07-30T06:09:03.211Z,1.80
2022-07-30T06:14:06.627Z,2.03
2022-07-30T06:19:19.686Z,2.10
2022-07-30T06:24:23.309Z,1.87
2022-07-30T06:29:32.435Z,1.70
2022-07-30T06:34:37.286Z,1.80
2022-07-30T06:39:58.128Z,1.70
2022-07-30T06:45:02.126Z,1.70
2022-07-30T06:50:08.537Z,1.80
2022-07-30T06:55:12.670Z,1.70
2022-07-30T07:00:16.851Z,1.93
2022-07-30T07:05:22.909Z,1.43
2022-07-30T07:10:26.549Z,1.63
2022-07-30T07:15:36.911Z,2.03
2022-07-30T07:20:43.587Z,1.80
2022-07-30T07:25:47.489Z,1.90
2022-07-30T07:30:50.974Z,1.80
2022-07-30T07:35:55.884Z,2.13
2022-07-30T07:40:59.377Z,2.07
2022-07-30T07:46:02.865Z,1.80
2022-07-30T07:51:09.580Z,1.80
2022-07-30T07:56:14.225Z,2.00
2022-07-30T08:01:17.889Z,2.13
2022-07-30T08:06:22.885Z,2.17
2022-07-30T08:11:26.355Z,2.47
2022-07-30T08:16:29.927Z,2.43
2022-07-30T08:21:34.842Z,2.33
2022-07-30T08:26:38.291Z,2.50
2022-07-30T08:31:41.720Z,2.87
2022-07-30T08:36:46.680Z,2.50
2022-07-30T08:41:50.736Z,2.80
2022-07-30T08:46:56.498Z,2.67
2022-07-30T08:52:02.646Z,2.53
2022-07-30T08:57:07.304Z,2.83
2022-07-30T09:02:13.074Z,2.90
2022-07-30T09:07:18.436Z,2.50
2022-07-30T09:12:35.126Z,2.57
2022-07-30T09:17:53.945Z,2.53
2022-07-30T09:23:00.071Z,2.50
2022-07-30T09:28:03.742Z,2.13
2022-07-30T09:33:35.052Z,2.20
2022-07-30T09:38:49.173Z,2.00
2022-07-30T09:43:53.844Z,1.70
2022-07-30T09:49:15.624Z,9.77
2022-07-30T09:54:20.608Z,15.77
2022-07-30T09:59:35.017Z,9.70
2022-07-30T10:04:40.395Z,2.60
2022-07-30T10:09:47.031Z,1.60
2022-07-30T10:14:54.270Z,1.50
2022-07-30T10:19:57.784Z,1.40
2022-07-30T10:25:09.475Z,1.60
2022-07-30T10:30:13.987Z,1.50
2022-07-30T10:35:34.638Z,1.63
2022-07-30T10:40:49.086Z,1.63
2022-07-30T10:46:02.935Z,1.73
2022-07-30T10:51:08.861Z,1.80
2022-07-30T10:56:19.435Z,1.50
2022-07-30T11:02:07.910Z,1.40
2022-07-30T11:07:32.041Z,1.33
2022-07-30T11:12:57.038Z,1.50
2022-07-30T11:18:11.293Z,1.40
2022-07-30T11:23:39.193Z,1.20
2022-07-30T11:28:45.999Z,1.43
2022-07-30T11:35:41.098Z,1.50
2022-07-30T11:40:26.281Z,1.57
2022-07-30T11:45:31.985Z,1.47
2022-07-30T11:50:36.637Z,1.13
2022-07-30T11:55:42.659Z,1.57
2022-07-30T12:00:51.006Z,1.40
2022-07-30T12:05:55.002Z,1.60
2022-07-30T12:11:00.772Z,1.30
2022-07-30T12:16:09.371Z,1.30
2022-07-30T12:21:18.217Z,1.57
2022-07-30T12:26:23.145Z,1.37
2022-07-30T12:31:29.772Z,1.87
2022-07-30T12:36:37.971Z,1.87
2022-07-30T12:42:06.712Z,2.10
2022-07-30T12:47:24.227Z,1.83
2022-07-30T12:52:31.156Z,1.50
2022-07-30T12:57:54.709Z,1.50
2022-07-30T13:03:00.239Z,1.70
2022-07-30T13:08:03.768Z,1.90
2022-07-30T13:13:07.315Z,1.60
2022-07-30T13:18:12.193Z,1.83
2022-07-30T13:23:17.346Z,1.87
2022-07-30T13:28:21.369Z,1.70
2022-07-30T13:33:26.947Z,1.67
2022-07-30T13:38:30.846Z,2.13
2022-07-30T13:43:34.592Z,1.80
2022-07-30T13:48:40.012Z,2.00
2022-07-30T13:53:43.482Z,1.73
2022-07-30T13:58:47.001Z,2.10
2022-07-30T14:03:51.908Z,1.80
2022-07-30T14:08:55.479Z,1.77
2022-07-30T14:13:58.985Z,1.87
2022-07-30T14:19:04.090Z,1.67
2022-07-30T14:24:08.140Z,2.03
2022-07-30T14:29:21.555Z,2.47
2022-07-30T14:34:28.292Z,2.30
2022-07-30T14:39:31.917Z,2.07
2022-07-30T14:44:36.373Z,2.20
2022-07-30T14:49:41.866Z,2.00
2022-07-30T14:54:45.766Z,1.90
2022-07-30T14:59:49.456Z,2.03
2022-07-30T15:04:54.693Z,2.00
2022-07-30T15:09:58.561Z,2.10
2022-07-30T15:15:02.633Z,2.00
2022-07-30T15:20:14.824Z,1.80
2022-07-30T15:25:21.213Z,2.03
2022-07-30T15:30:27.741Z,1.80
2022-07-30T15:35:33.206Z,1.67
2022-07-30T15:40:36.864Z,6.20
2022-07-30T15:45:51.295Z,1.70
2022-07-30T15:51:04.614Z,1.70
2022-07-30T15:56:08.213Z,1.57
2022-07-30T16:01:12.447Z,1.70
2022-07-30T16:06:17.567Z,1.40
2022-07-30T16:11:21.162Z,1.60
2022-07-30T16:16:24.894Z,1.43
2022-07-30T16:21:32.616Z,1.50
2022-07-30T16:26:42.230Z,1.50
2022-07-30T16:31:48.800Z,1.50
2022-07-30T16:36:53.881Z,1.50
2022-07-30T16:41:57.537Z,8.00
2022-07-30T16:47:01.670Z,2.47
2022-07-30T16:52:07.417Z,2.00
2022-07-30T16:57:10.960Z,1.80
2022-07-30T17:02:14.440Z,1.80
2022-07-30T17:07:19.326Z,1.80
2022-07-30T17:12:25.425Z,1.43
2022-07-30T17:17:31.046Z,1.87
2022-07-30T17:22:39.012Z,1.70
2022-07-30T17:27:44.827Z,1.50
2022-07-30T17:32:48.462Z,1.70
2022-07-30T17:37:53.454Z,1.67
2022-07-30T17:43:03.708Z,1.27
2022-07-30T17:48:08.407Z,1.20
2022-07-30T17:53:13.447Z,1.30
2022-07-30T17:58:16.955Z,1.40
2022-07-30T18:03:20.482Z,1.40
2022-07-30T18:08:25.740Z,1.20
2022-07-30T18:13:29.752Z,1.30
2022-07-30T18:18:33.362Z,1.27
2022-07-30T18:23:38.582Z,1.30
2022-07-30T18:28:42.142Z,1.00
2022-07-30T18:33:45.670Z,1.10
2022-07-30T18:38:51.155Z,1.20
2022-07-30T18:43:54.741Z,1.10
2022-07-30T18:49:06.968Z,1.03
2022-07-30T18:54:23.129Z,1.20
2022-07-30T18:59:26.650Z,1.30
2022-07-30T19:04:31.485Z,1.30
2022-07-30T19:09:36.444Z,1.10
2022-07-30T19:14:40.442Z,1.03
2022-07-30T19:19:44.139Z,1.53
2022-07-30T19:24:49.217Z,1.13
2022-07-30T19:29:52.740Z,1.30
2022-07-30T19:34:59.437Z,1.20
2022-07-30T19:40:06.058Z,1.40
2022-07-30T19:45:13.214Z,1.17
2022-07-30T19:50:16.880Z,1.53
2022-07-30T19:55:37.510Z,1.20
2022-07-30T20:00:50.342Z,1.40
2022-07-30T20:05:58.468Z,1.37
2022-07-30T20:11:08.521Z,1.80
2022-07-30T20:16:21.204Z,1.57
2022-07-30T20:21:57.051Z,1.43
2022-07-30T20:26:52.111Z,1.20
2022-07-30T20:31:55.653Z,1.10
2022-07-30T20:36:59.623Z,1.20
2022-07-30T20:42:30.321Z,1.30
2022-07-30T20:47:38.395Z,1.37
2022-07-30T20:52:46.580Z,1.50
2022-07-30T20:58:04.979Z,1.30
2022-07-30T21:03:17.912Z,1.37
2022-07-30T21:08:25.156Z,1.40
2022-07-30T21:13:30.895Z,1.17
2022-07-30T21:18:35.917Z,1.47
2022-07-30T21:23:39.361Z,1.50
2022-07-30T21:28:45.008Z,1.40
2022-07-30T21:33:48.604Z,1.40
2022-07-30T21:38:52.211Z,1.50
2022-07-30T21:43:57.210Z,1.60
2022-07-30T21:49:01.073Z,1.80
2022-07-30T21:54:07.212Z,1.83
2022-07-30T21:59:12.496Z,1.70
2022-07-30T22:04:16.602Z,1.63
2022-07-30T22:09:34.010Z,1.30
2022-07-30T22:14:39.746Z,1.50
2022-07-30T22:19:43.338Z,1.40
2022-07-30T22:24:47.475Z,1.60
2022-07-30T22:29:55.584Z,1.73
2022-07-30T22:34:59.477Z,1.67
2022-07-30T22:40:03.021Z,1.60
2022-07-30T22:45:11.982Z,1.60
2022-07-30T22:50:17.379Z,1.90
2022-07-30T22:55:27.889Z,1.70
2022-07-30T23:00:34.743Z,1.53
2022-07-30T23:05:40.000Z,1.57
2022-07-30T23:10:46.485Z,2.00
2022-07-30T23:15:51.463Z,1.60
2022-07-30T23:20:59.915Z,1.83
2022-07-30T23:26:04.368Z,1.80
2022-07-30T23:31:09.490Z,1.70
2022-07-30T23:36:12.970Z,1.67
2022-07-30T23:41:29.456Z,1.77
2022-07-30T23:46:37.306Z,1.63
2022-07-30T23:51:40.833Z,1.80
2022-07-30T23:56:44.612Z,1.83
